RJFTRJOM

Guest
Details From RJFT - KUMAMOTO
To RJOM - MATSUYAMA
Flight Number -
Tags generated
Created
Modified
Stats Distance 110 nm / 204 km
Max Altitude 8,000 ft / 2,438 m
Waypoints 4
Social Downloads 1
Likes 0
Share VATSIM

Download

Looking for another format? Having issues loading an existing format? Contact us
Advertisement - Login to hide

Notes

Basic altitude profile: - Ascent Rate: 2500ft/min - Ascent Speed: 250kts - Cruise Altitude: 35000ft - Cruise Speed: 420kts - Descent Rate: 1500ft/min - Descent Speed: 250kts Options: - Use NATs: yes - Use PACOTS: yes - Use low airways: yes - Use high airways: yes

Route

RJFT TUJUN V40 ASONO RJOM

ID Type Via Altitude Latitude Longitude Leg Dist Tot Dist Heading (true) Name
O RJFT APT - 0 ft / 0 m 32.83732˚ 130.85505˚ - 0 nm - KUMAMOTO
TUJUN FIX - 1,100 ft / 335 m 32.86618˚ 130.91152˚ 3 nm 3 nm 59° / 59° -
ASONO FIX V40 (AWY-LO) 8,000 ft / 2,438 m 33.01614˚ 131.24706˚ 19 nm 22 nm 62° / 62° -
O RJOM APT - 0 ft / 0 m 33.82726˚ 132.69963˚ 87 nm 110 nm 56° / 57° MATSUYAMA

Altitude Profile

Advertisement - Login to hide

RJFT

Details ICAO RJFT (KMJ)
Name KUMAMOTO
Region Japan
Timezone Asia/Tokyo (UTC+9.0)
Stats Elevation 642 ft / 196 m (AMSL)
Location 32.837318° 130.855052°
Runways 1
Magnetic Variation 7.226° W

METAR

RJFT 160517Z 30008KT 270V360 5000 -SHRA BR FEW010 BKN030 BKN035 06/05 Q1020 RMK 1CU010 5CU030 7CU035 A3012

Decode

TAF

TAF RJFT 160512Z 1606/1712 31007KT 9999 FEW020 SCT030 BKN040

Decode

Departure Runways

ID Width Length Bearing (true) Bearing (mag) Surface Threshold Offset Overrun Length
07 150 ft / 46 m 9,833 ft / 2,997 m 64.47° 71.70° Asphalt 0 ft / 0 m 200 ft / 61 m
25 150 ft / 46 m 9,833 ft / 2,997 m 244.49° 251.72° Asphalt 0 ft / 0 m 200 ft / 61 m

RJOM

Details ICAO RJOM (MYJ)
Name MATSUYAMA
Region Japan
Timezone Asia/Tokyo (UTC+9.0)
Stats Elevation 25 ft / 8 m (AMSL)
Location 33.827257° 132.699631°
Runways 1
Magnetic Variation 7.514° W

METAR

RJOM 160500Z 26017KT 9999 VCSH FEW015 SCT025 BKN040 10/04 Q1018

Decode

TAF

TAF RJOM 160505Z 1606/1712 29018KT 9999 FEW025 BKN050 TEMPO 1618/1621 3000 -SHSNRA

Decode

Destination Runways

ID Width Length Bearing (true) Bearing (mag) Surface Threshold Offset Overrun Length
14 150 ft / 46 m 8,203 ft / 2,500 m 130.67° 138.18° Asphalt 0 ft / 0 m 206 ft / 63 m
32 150 ft / 46 m 8,203 ft / 2,500 m 310.68° 318.19° Asphalt 0 ft / 0 m 195 ft / 59 m

Popular Alternatives